Time;durP1;ratioP1;P1;durP2;ratioP2;P2;SDS_P1;SDS_P2;PMS_P1;PMS_P2;Temp;Humidity;BMP_temperature;BMP_pressure;BME280_temperature;BME280_humidity;BME280_pressure;Samples;Min_cycle;Max_cycle;Signal;HPM_P1;HPM_P2
2021/05/13 00:01:53;;;;;;;5.85;4.37;;;;;;;7.24;100.00;100622.45;1690358;84;21057;-87
2021/05/13 00:04:20;;;;;;;5.30;4.45;;;;;;;7.30;100.00;100623.00;1690333;84;20957;-85
2021/05/13 00:06:48;;;;;;;5.78;4.50;;;;;;;7.32;100.00;100627.63;1690392;84;21024;-84
2021/05/13 00:09:15;;;;;;;14.33;4.80;;;;;;;7.32;100.00;100631.52;1666299;84;20956;-85
2021/05/13 00:11:48;;;;;;;13.03;4.83;;;;;;;7.30;100.00;100631.59;1690447;84;20924;-87
2021/05/13 00:14:16;;;;;;;8.73;4.45;;;;;;;7.29;100.00;100629.10;1687135;83;21084;-87
2021/05/13 00:16:45;;;;;;;7.50;4.42;;;;;;;7.28;100.00;100624.84;1690467;83;20968;-85
2021/05/13 00:19:14;;;;;;;8.95;4.30;;;;;;;7.23;100.00;100618.64;1682031;84;20960;-82
2021/05/13 00:21:44;;;;;;;3.65;3.35;;;;;;;7.14;100.00;100620.49;1662482;86;21091;-86
2021/05/13 00:24:14;;;;;;;4.20;3.80;;;;;;;7.09;100.00;100618.21;1662661;85;20920;-88
2021/05/13 00:26:42;;;;;;;4.12;3.72;;;;;;;7.06;100.00;100617.09;1662571;85;21046;-87
2021/05/13 00:29:16;;;;;;;5.25;4.10;;;;;;;7.05;100.00;100617.53;1661737;86;20953;-86
2021/05/13 00:31:44;;;;;;;4.45;3.83;;;;;;;7.04;100.00;100622.81;1661815;86;20955;-84
2021/05/13 00:34:11;;;;;;;4.45;4.05;;;;;;;7.06;100.00;100630.86;1662530;85;20957;-85
2021/05/13 00:36:39;;;;;;;4.60;3.95;;;;;;;7.08;100.00;100625.12;1661951;86;20980;-85
2021/05/13 00:39:09;;;;;;;4.22;3.72;;;;;;;7.10;100.00;100628.47;1662567;86;21570;-85
2021/05/13 00:41:37;;;;;;;4.87;3.42;;;;;;;7.08;100.00;100622.55;1658699;84;21502;-85
2021/05/13 00:44:06;;;;;;;4.90;3.72;;;;;;;7.06;100.00;100618.39;1661800;85;20952;-85
2021/05/13 00:46:34;;;;;;;3.87;3.55;;;;;;;7.03;100.00;100618.11;1662513;86;21557;-84
2021/05/13 00:49:08;;;;;;;6.87;3.62;;;;;;;7.03;100.00;100618.11;1662536;85;21562;-84
2021/05/13 00:51:34;;;;;;;4.25;3.85;;;;;;;7.03;100.00;100625.88;1662492;85;21130;-84
2021/05/13 00:54:01;;;;;;;7.12;3.60;;;;;;;6.99;100.00;100629.56;1662437;84;21587;-83
2021/05/13 00:56:30;;;;;;;4.05;3.67;;;;;;;6.99;100.00;100635.22;1661829;85;20945;-86
2021/05/13 00:59:00;;;;;;;12.28;4.00;;;;;;;6.97;100.00;100636.58;1662486;84;20929;-84
2021/05/13 01:01:36;;;;;;;12.07;3.98;;;;;;;6.93;100.00;100634.64;1662443;86;21463;-83
2021/05/13 01:03:55;;;;;;;13.45;3.75;;;;;;;6.88;100.00;100643.63;1662402;86;21058;-85
2021/05/13 01:06:22;;;;;;;4.30;2.80;;;;;;;6.82;100.00;100644.81;1662549;85;21957;-86
2021/05/13 01:08:49;;;;;;;3.17;2.90;;;;;;;6.77;100.00;100641.67;1662602;85;21514;-85
2021/05/13 01:11:16;;;;;;;4.65;2.80;;;;;;;6.72;100.00;100640.65;1661804;86;21399;-85
2021/05/13 01:14:03;;;;;;;3.37;3.08;;;;;;;6.70;100.00;100638.61;1662653;84;20939;-84
2021/05/13 01:16:49;;;;;;;2.75;2.55;;;;;;;6.69;100.00;100638.23;1642471;86;21107;-87
2021/05/13 01:19:16;;;;;;;2.90;2.70;;;;;;;6.68;100.00;100639.14;1639319;86;21060;-86
2021/05/13 01:21:44;;;;;;;2.83;2.62;;;;;;;6.61;100.00;100639.95;1662450;86;20977;-83
2021/05/13 01:24:16;;;;;;;4.50;2.95;;;;;;;6.40;100.00;100641.20;1662612;86;21059;-84
2021/05/13 01:26:46;;;;;;;3.15;2.85;;;;;;;6.20;100.00;100637.16;1675266;83;21939;-86
2021/05/13 01:29:17;;;;;;;3.33;2.95;;;;;;;6.11;100.00;100632.05;1700985;82;21065;-86
2021/05/13 01:31:45;;;;;;;3.00;2.80;;;;;;;6.13;100.00;100636.66;1678710;84;20967;-83
2021/05/13 01:34:12;;;;;;;4.55;3.20;;;;;;;6.19;100.00;100646.69;1693338;82;21003;-86
2021/05/13 01:36:39;;;;;;;3.70;3.40;;;;;;;6.24;100.00;100650.30;1676512;84;21050;-84
2021/05/13 01:39:10;;;;;;;4.25;3.55;;;;;;;6.29;100.00;100643.92;1676665;85;20975;-85
2021/05/13 01:41:38;;;;;;;3.70;3.40;;;;;;;6.29;100.00;100634.05;1676552;85;21598;-85
2021/05/13 01:44:06;;;;;;;5.22;4.70;;;;;;;6.28;100.00;100641.44;1676151;85;20943;-85
2021/05/13 01:46:34;;;;;;;9.15;4.55;;;;;;;6.30;100.00;100657.71;1651020;85;20959;-85
2021/05/13 01:49:01;;;;;;;17.00;5.15;;;;;;;6.24;100.00;100658.88;1672725;84;20955;-85
2021/05/13 01:51:28;;;;;;;8.65;5.08;;;;;;;6.18;100.00;100649.33;1627252;87;21026;-86
2021/05/13 01:53:56;;;;;;;8.90;5.30;;;;;;;6.20;100.00;100655.26;1607336;87;21149;-85
2021/05/13 01:56:23;;;;;;;9.85;6.90;;;;;;;6.20;100.00;100652.23;1633959;86;20981;-85
2021/05/13 01:58:50;;;;;;;20.05;7.42;;;;;;;6.20;100.00;100653.97;1651133;85;21430;-85
2021/05/13 02:01:17;;;;;;;33.83;8.95;;;;;;;6.21;100.00;100654.34;1651032;85;21990;-86
2021/05/13 02:03:45;;;;;;;41.15;9.05;;;;;;;6.26;100.00;100654.91;1672744;85;21120;-87
2021/05/13 02:06:12;;;;;;;40.95;8.33;;;;;;;6.29;100.00;100654.27;1651086;85;21027;-86
2021/05/13 02:08:39;;;;;;;23.42;7.47;;;;;;;6.35;100.00;100657.45;1672637;85;20948;-84
2021/05/13 02:11:06;;;;;;;21.37;7.28;;;;;;;6.44;100.00;100655.64;1627338;88;20946;-83
2021/05/13 02:13:33;;;;;;;14.18;5.90;;;;;;;6.48;100.00;100661.00;1672717;84;20944;-84
2021/05/13 02:16:02;;;;;;;9.03;5.78;;;;;;;6.36;100.00;100659.94;1672630;84;21077;-86
2021/05/13 02:18:30;;;;;;;8.90;5.90;;;;;;;6.25;100.00;100670.08;1672659;84;21038;-83
2021/05/13 02:20:57;;;;;;;10.20;6.15;;;;;;;6.16;100.00;100672.70;1627096;86;20983;-85
2021/05/13 02:23:24;;;;;;;11.38;5.95;;;;;;;6.17;100.00;100670.97;1672676;84;20964;-86
2021/05/13 02:25:52;;;;;;;19.95;6.58;;;;;;;6.18;100.00;100673.89;1672655;85;20963;-84
2021/05/13 02:28:19;;;;;;;8.05;5.65;;;;;;;6.21;100.00;100677.14;1672739;85;20964;-85
2021/05/13 02:30:46;;;;;;;28.20;6.35;;;;;;;6.25;100.00;100676.54;1669038;85;21020;-85
2021/05/13 02:33:14;;;;;;;14.93;6.78;;;;;;;6.30;100.00;100683.09;1674059;85;20971;-87
2021/05/13 02:35:41;;;;;;;23.42;6.10;;;;;;;6.40;100.00;100683.88;1674208;85;20936;-85
2021/05/13 02:38:08;;;;;;;17.00;7.85;;;;;;;6.48;100.00;100681.69;1674140;85;20968;-84
2021/05/13 02:40:35;;;;;;;18.35;9.33;;;;;;;6.50;100.00;100683.73;1674053;84;21495;-84
2021/05/13 02:43:03;;;;;;;32.58;9.48;;;;;;;6.52;100.00;100681.05;1650388;85;20908;-84
2021/05/13 02:45:30;;;;;;;18.73;7.40;;;;;;;6.55;100.00;100692.06;1697084;82;20907;-86
2021/05/13 02:47:58;;;;;;;31.65;8.30;;;;;;;6.58;100.00;100690.60;1717385;82;20948;-83
2021/05/13 02:50:26;;;;;;;37.00;8.58;;;;;;;6.56;100.00;100695.02;1717391;82;21605;-87
2021/05/13 02:52:53;;;;;;;18.32;7.08;;;;;;;6.49;100.00;100693.71;1717460;82;20927;-86
2021/05/13 02:55:20;;;;;;;15.60;6.28;;;;;;;6.44;100.00;100700.44;1717536;82;21085;-84
2021/05/13 02:57:51;;;;;;;16.23;5.75;;;;;;;6.38;100.00;100693.03;1717384;82;20943;-88
2021/05/13 03:00:30;;;;;;;14.70;6.42;;;;;;;6.33;100.00;100711.02;1692682;83;20935;-83
2021/05/13 03:02:56;;;;;;;13.38;7.47;;;;;;;6.31;100.00;100708.52;1690628;82;20947;-83
2021/05/13 03:05:27;;;;;;;13.90;7.65;;;;;;;6.35;100.00;100703.53;1691082;84;20913;-83
2021/05/13 03:07:57;;;;;;;21.45;7.30;;;;;;;6.42;100.00;100704.03;1644495;86;21043;-81
2021/05/13 03:12:55;;;;;;;10.45;6.87;;;;;;;6.51;100.00;100706.55;1682394;82;20200;-83
2021/05/13 03:15:22;;;;;;;9.70;6.87;;;;;;;6.56;100.00;100708.44;1674355;84;20936;-84
2021/05/13 03:17:50;;;;;;;15.32;6.83;;;;;;;6.60;100.00;100702.15;1691467;83;21522;-85
2021/05/13 03:20:22;;;;;;;17.12;8.20;;;;;;;6.63;100.00;100698.92;1663346;84;21618;-86
2021/05/13 03:22:51;;;;;;;55.28;10.48;;;;;;;6.68;100.00;100704.31;1682987;83;21603;-85
2021/05/13 03:25:25;;;;;;;21.62;8.25;;;;;;;6.74;100.00;100698.78;1695029;84;22025;-84
2021/05/13 03:27:51;;;;;;;19.48;8.95;;;;;;;6.76;100.00;100696.47;1694866;84;21043;-82
2021/05/13 03:30:19;;;;;;;16.90;8.43;;;;;;;6.85;100.00;100698.97;1700156;84;21091;-85
2021/05/13 03:32:45;;;;;;;20.57;9.33;;;;;;;6.96;100.00;100686.72;1688520;84;21048;-85
2021/05/13 03:35:14;;;;;;;23.62;9.75;;;;;;;7.12;100.00;100693.11;1676546;85;20928;-87
2021/05/13 03:37:41;;;;;;;25.72;10.90;;;;;;;7.25;100.00;100700.98;1676621;84;21051;-85
2021/05/13 03:40:09;;;;;;;19.82;9.68;;;;;;;7.33;100.00;100696.17;1676671;85;20940;-85
2021/05/13 03:42:36;;;;;;;18.77;9.55;;;;;;;7.44;100.00;100691.63;1674067;85;21559;-83
2021/05/13 03:45:05;;;;;;;16.50;10.55;;;;;;;7.60;100.00;100682.92;1675830;85;21774;-87
2021/05/13 03:47:32;;;;;;;19.57;9.58;;;;;;;7.75;100.00;100684.56;1672744;85;20948;-84
2021/05/13 03:50:00;;;;;;;30.12;12.23;;;;;;;7.89;100.00;100674.63;1672763;84;20948;-86
2021/05/13 03:52:28;;;;;;;24.52;12.37;;;;;;;8.05;100.00;100684.89;1651010;85;20948;-84
2021/05/13 03:54:54;;;;;;;19.82;11.05;;;;;;;8.20;100.00;100686.50;1650934;85;20932;-84
2021/05/13 03:57:21;;;;;;;19.15;11.00;;;;;;;8.34;100.00;100692.55;1672787;85;21035;-85
2021/05/13 03:59:50;;;;;;;29.32;11.53;;;;;;;8.41;100.00;100687.33;1692224;83;21589;-85
2021/05/13 04:02:35;;;;;;;32.80;12.43;;;;;;;8.43;100.00;100685.48;1677905;84;21547;-86
2021/05/13 04:05:02;;;;;;;75.40;13.28;;;;;;;8.50;100.00;100689.36;1692301;84;20976;-84
2021/05/13 04:07:33;;;;;;;89.40;15.90;;;;;;;8.61;100.00;100681.35;1700872;83;20896;-83
2021/05/13 04:10:04;;;;;;;53.10;13.58;;;;;;;8.75;100.00;100677.81;1674191;84;21076;-84
2021/05/13 04:12:31;;;;;;;21.82;12.23;;;;;;;8.91;100.00;100677.64;1647826;85;21576;-85
2021/05/13 04:14:59;;;;;;;57.43;14.47;;;;;;;9.05;100.00;100685.81;1650506;84;21011;-87
2021/05/13 04:17:26;;;;;;;31.62;13.95;;;;;;;9.14;100.00;100699.45;1674133;84;20968;-83
2021/05/13 04:19:53;;;;;;;30.70;14.35;;;;;;;9.25;100.00;100707.84;1642171;85;20959;-81
2021/05/13 04:22:20;;;;;;;31.70;13.08;;;;;;;9.31;100.00;100714.73;1674224;85;20990;-80
2021/05/13 04:24:48;;;;;;;40.00;14.38;;;;;;;9.38;100.00;100707.80;1674230;85;20991;-84
2021/05/13 04:27:15;;;;;;;21.37;13.53;;;;;;;9.48;100.00;100707.55;1674244;84;20924;-85
2021/05/13 04:29:41;;;;;;;19.25;13.35;;;;;;;9.60;100.00;100718.41;1674210;84;20999;-85
2021/05/13 04:32:08;;;;;;;19.32;13.15;;;;;;;9.65;100.00;100731.09;1650651;85;20936;-86
2021/05/13 04:34:35;;;;;;;19.20;13.45;;;;;;;9.72;100.00;100757.48;1662321;84;21055;-82
2021/05/13 04:37:02;;;;;;;21.87;13.90;;;;;;;9.80;100.00;100769.48;1646893;85;20952;-83
2021/05/13 04:39:29;;;;;;;23.50;14.40;;;;;;;9.90;100.00;100780.07;1624058;87;21075;-83
2021/05/13 04:41:56;;;;;;;21.77;13.10;;;;;;;9.96;100.00;100786.17;1623974;87;21051;-85
2021/05/13 04:44:23;;;;;;;23.27;13.78;;;;;;;10.06;100.00;100777.23;1623997;87;20947;-85
2021/05/13 04:46:58;;;;;;;22.90;13.80;;;;;;;10.15;100.00;100766.19;1658778;85;21009;-86
2021/05/13 04:49:19;;;;;;;38.75;15.72;;;;;;;10.21;100.00;100763.14;1636306;85;21035;-81
2021/05/13 04:51:46;;;;;;;41.28;15.10;;;;;;;10.29;100.00;100756.10;1677143;84;21912;-84
2021/05/13 04:54:16;;;;;;;32.25;15.48;;;;;;;10.37;100.00;100753.81;1660873;86;21001;-85
2021/05/13 04:56:43;;;;;;;66.67;16.35;;;;;;;10.44;100.00;100754.66;1660857;86;21035;-85
2021/05/13 04:59:10;;;;;;;28.85;13.83;;;;;;;10.51;100.00;100745.46;1639550;86;21029;-83
2021/05/13 05:01:38;;;;;;;22.93;13.80;;;;;;;10.61;100.00;100746.91;1660844;86;20988;-83
2021/05/13 05:04:05;;;;;;;23.50;13.30;;;;;;;10.69;100.00;100740.67;1660774;86;20890;-84
2021/05/13 05:06:32;;;;;;;32.15;13.05;;;;;;;10.78;100.00;100742.60;1639550;86;21548;-81
2021/05/13 05:09:00;;;;;;;73.25;15.53;;;;;;;10.81;100.00;100731.12;1660931;86;21686;-86
2021/05/13 05:11:27;;;;;;;29.30;13.03;;;;;;;10.83;100.00;100733.15;1660900;86;21767;-81
2021/05/13 05:13:54;;;;;;;28.83;12.50;;;;;;;10.89;100.00;100740.04;1660883;86;21519;-84
2021/05/13 05:16:21;;;;;;;16.02;11.88;;;;;;;10.99;100.00;100739.33;1660883;86;21545;-80
2021/05/13 05:18:48;;;;;;;44.88;13.22;;;;;;;11.09;100.00;100731.67;1660885;86;21534;-83
2021/05/13 05:21:15;;;;;;;24.37;12.40;;;;;;;11.19;100.00;100736.52;1643999;85;21095;-81
2021/05/13 05:23:42;;;;;;;104.15;16.30;;;;;;;11.27;100.00;100730.25;1700663;82;21061;-82
2021/05/13 05:26:09;;;;;;;20.30;11.65;;;;;;;11.31;100.00;100726.48;1681259;84;20908;-85
2021/05/13 05:28:36;;;;;;;24.98;10.93;;;;;;;11.38;100.00;100727.31;1665539;85;20961;-82
2021/05/13 05:31:03;;;;;;;16.90;11.22;;;;;;;11.43;100.00;100723.41;1660990;85;20988;-83
2021/05/13 05:33:30;;;;;;;16.02;11.33;;;;;;;11.51;100.00;100729.31;1674979;84;20941;-80
2021/05/13 05:35:57;;;;;;;18.60;11.95;;;;;;;11.56;100.00;100724.59;1682030;84;21626;-81
2021/05/13 05:38:24;;;;;;;17.65;11.68;;;;;;;11.59;100.00;100726.95;1673083;85;21566;-84
2021/05/13 05:40:51;;;;;;;15.32;11.00;;;;;;;11.59;100.00;100726.95;1660783;83;20921;-82
2021/05/13 05:43:18;;;;;;;17.80;11.30;;;;;;;11.61;100.00;100729.45;1687426;85;20921;-82
2021/05/13 05:45:45;;;;;;;53.02;13.70;;;;;;;11.68;100.00;100726.23;1659855;85;20941;-84
2021/05/13 05:48:12;;;;;;;15.18;12.37;;;;;;;11.77;100.00;100725.16;1659504;86;21125;-84
2021/05/13 05:50:42;;;;;;;20.68;13.08;;;;;;;11.81;100.00;100722.19;1669141;84;21007;-83
2021/05/13 05:53:11;;;;;;;22.65;13.53;;;;;;;11.86;100.00;100720.52;1690923;83;20968;-83
2021/05/13 05:55:41;;;;;;;16.52;12.82;;;;;;;11.92;100.00;100727.86;1684252;84;20901;-80
2021/05/13 05:58:08;;;;;;;16.75;12.37;;;;;;;11.99;100.00;100725.15;1678170;84;20943;-83
2021/05/13 06:00:35;;;;;;;16.87;11.43;;;;;;;12.11;100.00;100729.05;1688434;83;21638;-81
2021/05/13 06:03:02;;;;;;;17.42;12.65;;;;;;;12.18;100.00;100732.83;1688236;83;21544;-83
2021/05/13 06:05:31;;;;;;;15.88;13.22;;;;;;;12.25;100.00;100733.17;1684357;82;21525;-85
2021/05/13 06:07:58;;;;;;;13.95;11.55;;;;;;;12.34;100.00;100735.50;1678240;84;21494;-82
2021/05/13 06:10:25;;;;;;;13.58;10.75;;;;;;;12.42;100.00;100738.33;1686149;83;20930;-81
2021/05/13 06:12:53;;;;;;;13.60;10.55;;;;;;;12.50;100.00;100738.53;1652291;85;21125;-81
2021/05/13 06:15:22;;;;;;;12.15;10.10;;;;;;;12.60;100.00;100741.22;1661827;85;20966;-83
2021/05/13 06:17:49;;;;;;;11.12;9.85;;;;;;;12.70;100.00;100744.74;1652191;85;20951;-86
2021/05/13 06:20:23;;;;;;;11.35;9.40;;;;;;;12.80;100.00;100739.58;1658218;85;21581;-88
2021/05/13 06:22:51;;;;;;;13.78;11.40;;;;;;;12.86;100.00;100745.59;1643462;86;20944;-84
2021/05/13 06:25:19;;;;;;;13.85;10.23;;;;;;;12.94;100.00;100756.24;1664577;86;21060;-83
2021/05/13 06:27:46;;;;;;;11.83;9.93;;;;;;;13.00;100.00;100747.56;1643248;86;20976;-83
2021/05/13 06:30:15;;;;;;;11.95;9.50;;;;;;;13.11;100.00;100747.48;1665984;86;20976;-85
2021/05/13 06:32:44;;;;;;;11.93;10.68;;;;;;;13.20;100.00;100741.97;1643286;86;21516;-83
2021/05/13 06:35:12;;;;;;;15.85;11.12;;;;;;;13.29;100.00;100742.97;1664596;86;20956;-83
2021/05/13 06:37:39;;;;;;;11.57;9.83;;;;;;;13.34;100.00;100742.12;1664626;86;21061;-83
2021/05/13 06:40:08;;;;;;;11.57;10.40;;;;;;;13.38;100.00;100746.96;1643279;86;20928;-86
2021/05/13 06:42:36;;;;;;;10.95;9.68;;;;;;;13.41;100.00;100744.09;1664525;84;20936;-87
2021/05/13 06:45:06;;;;;;;10.45;9.35;;;;;;;13.47;100.00;100736.21;1665958;86;20960;-81
2021/05/13 06:47:34;;;;;;;11.10;10.00;;;;;;;13.55;100.00;100742.08;1664316;84;20956;-83
2021/05/13 06:50:01;;;;;;;14.03;10.35;;;;;;;13.67;100.00;100741.50;1662738;86;21047;-87
2021/05/13 06:52:28;;;;;;;13.48;9.98;;;;;;;13.82;100.00;100742.78;1636420;86;21577;-87
2021/05/13 06:54:55;;;;;;;11.18;9.38;;;;;;;13.91;100.00;100745.56;1653426;85;21097;-81
2021/05/13 06:57:22;;;;;;;19.45;11.18;;;;;;;13.99;100.00;100740.48;1662530;86;20968;-81
2021/05/13 06:59:49;;;;;;;13.38;11.78;;;;;;;14.11;100.00;100735.96;1660413;85;20935;-84
2021/05/13 07:02:17;;;;;;;16.77;11.75;;;;;;;14.22;100.00;100737.66;1677230;85;22008;-88
2021/05/13 07:04:44;;;;;;;13.43;11.65;;;;;;;14.32;100.00;100739.31;1662551;85;21596;-82
2021/05/13 07:07:12;;;;;;;13.68;12.05;;;;;;;14.41;100.00;100740.77;1662686;86;20966;-84
2021/05/13 07:09:42;;;;;;;18.42;13.93;;;;;;;14.49;100.00;100739.59;1636688;86;21900;-84
2021/05/13 07:12:09;;;;;;;15.85;11.95;;;;;;;14.51;100.00;100734.56;1673634;84;21013;-87
2021/05/13 07:14:36;;;;;;;16.30;11.35;;;;;;;14.50;100.00;100728.97;1686805;83;21069;-84
2021/05/13 07:17:03;;;;;;;15.35;12.03;;;;;;;14.51;100.00;100730.62;1676633;84;21509;-84
2021/05/13 07:19:30;;;;;;;12.37;10.98;;;;;;;14.60;100.00;100737.31;1676817;85;20929;-83
2021/05/13 07:21:57;;;;;;;17.45;13.72;;;;;;;14.72;100.00;100741.47;1651369;85;21581;-86
2021/05/13 07:24:24;;;;;;;14.50;10.50;;;;;;;14.89;100.00;100748.27;1651651;85;20991;-87
2021/05/13 07:26:52;;;;;;;11.55;10.40;;;;;;;14.98;100.00;100748.25;1651247;84;21049;-85
2021/05/13 07:29:19;;;;;;;15.45;11.50;;;;;;;14.99;100.00;100747.78;1651236;85;20944;-89
2021/05/13 07:31:46;;;;;;;12.63;10.88;;;;;;;15.02;100.00;100744.89;1628971;85;20904;-82
2021/05/13 07:34:13;;;;;;;11.48;10.25;;;;;;;15.05;100.00;100749.02;1646159;85;21490;-89
2021/05/13 07:36:40;;;;;;;11.33;10.08;;;;;;;15.11;100.00;100746.64;1651162;85;20919;-81
2021/05/13 07:39:07;;;;;;;14.95;10.85;;;;;;;15.22;100.00;100750.07;1651384;85;21645;-84
2021/05/13 07:41:34;;;;;;;14.23;8.83;;;;;;;15.33;100.00;100753.00;1651304;85;21593;-83
2021/05/13 07:44:02;;;;;;;11.93;10.03;;;;;;;15.36;100.00;100749.61;1651229;85;20971;-86
2021/05/13 07:46:34;;;;;;;18.85;10.28;;;;;;;15.34;100.00;100754.19;1652306;85;20991;-89
2021/05/13 07:48:58;;;;;;;10.03;9.13;;;;;;;15.33;100.00;100755.16;1675087;85;20954;-89
2021/05/13 07:51:25;;;;;;;9.35;8.35;;;;;;;15.40;100.00;100757.55;1643459;86;21570;-87
2021/05/13 07:53:52;;;;;;;9.35;7.87;;;;;;;15.50;100.00;100761.44;1666002;84;21020;-81
2021/05/13 07:56:19;;;;;;;9.38;8.28;;;;;;;15.65;100.00;100755.71;1664816;84;20936;-84
2021/05/13 07:58:46;;;;;;;8.68;7.78;;;;;;;15.78;100.00;100760.97;1664808;85;21640;-87
2021/05/13 08:01:13;;;;;;;8.68;7.87;;;;;;;15.93;100.00;100753.94;1666020;86;20968;-89
2021/05/13 08:03:40;;;;;;;9.70;8.85;;;;;;;16.07;100.00;100750.00;1666164;86;21004;-82
2021/05/13 08:06:07;;;;;;;8.08;7.37;;;;;;;16.20;100.00;100751.77;1666055;85;20964;-86
2021/05/13 08:08:34;;;;;;;9.18;8.33;;;;;;;16.23;100.00;100751.48;1664702;84;21001;-83
2021/05/13 08:11:02;;;;;;;9.15;8.25;;;;;;;16.21;100.00;100750.80;1666202;84;21581;-85
2021/05/13 08:13:31;;;;;;;8.98;8.10;;;;;;;16.17;100.00;100752.08;1664758;84;20988;-88
2021/05/13 08:15:58;;;;;;;9.18;7.90;;;;;;;16.08;100.00;100751.66;1666913;84;21565;-86
2021/05/13 08:18:25;;;;;;;8.70;7.80;;;;;;;16.10;100.00;100744.46;1669007;84;21039;-85
2021/05/13 08:20:52;;;;;;;8.53;7.72;;;;;;;16.18;100.00;100741.08;1678491;83;20941;-84
2021/05/13 08:23:19;;;;;;;8.08;7.28;;;;;;;16.36;100.00;100743.70;1664668;86;21527;-81
2021/05/13 08:25:46;;;;;;;7.65;6.95;;;;;;;16.52;100.00;100739.09;1669843;84;21526;-81
2021/05/13 08:28:13;;;;;;;9.43;7.37;;;;;;;16.68;100.00;100733.13;1692645;84;20995;-82
2021/05/13 08:30:43;;;;;;;8.10;7.30;;;;;;;16.84;100.00;100735.06;1692448;83;20957;-84
2021/05/13 08:33:11;;;;;;;7.72;6.97;;;;;;;16.97;100.00;100739.45;1670639;84;21013;-86
2021/05/13 08:35:38;;;;;;;8.03;7.10;;;;;;;17.13;100.00;100736.59;1685593;84;20932;-89
2021/05/13 08:38:06;;;;;;;8.40;6.97;;;;;;;17.20;100.00;100744.19;1705700;82;21012;-83
2021/05/13 08:40:33;;;;;;;7.58;6.87;;;;;;;17.12;100.00;100742.35;1669665;84;21043;-82
2021/05/13 08:43:01;;;;;;;7.17;6.58;;;;;;;17.04;100.00;100740.98;1665225;84;20917;-87
2021/05/13 08:45:29;;;;;;;7.12;6.42;;;;;;;17.00;100.00;100734.37;1692624;84;20964;-92
2021/05/13 08:47:56;;;;;;;12.40;7.10;;;;;;;17.07;100.00;100741.97;1650758;84;20978;-86
2021/05/13 08:50:23;;;;;;;8.50;6.80;;;;;;;17.18;100.00;100737.78;1692618;84;21977;-81
2021/05/13 08:52:50;;;;;;;7.75;6.83;;;;;;;17.33;100.00;100741.98;1699627;84;21565;-85
2021/05/13 08:55:17;;;;;;;7.50;6.37;;;;;;;17.50;100.00;100747.33;1670524;84;20932;-92
2021/05/13 08:57:44;;;;;;;8.20;6.65;;;;;;;17.60;100.00;100744.05;1699635;84;20909;-82
2021/05/13 09:00:13;;;;;;;12.20;7.37;;;;;;;17.70;100.00;100743.11;1692660;84;21019;-92
2021/05/13 09:02:51;;;;;;;17.92;6.92;;;;;;;17.78;100.00;100742.66;1667426;85;20943;-87
2021/05/13 09:05:22;;;;;;;8.38;7.22;;;;;;;17.85;97.96;100741.52;1679739;84;21038;-85
2021/05/13 09:07:54;;;;;;;10.40;7.20;;;;;;;17.91;98.41;100743.50;1641322;85;21028;-84
2021/05/13 09:10:23;;;;;;;7.50;6.78;;;;;;;18.01;94.96;100738.14;1675936;85;20944;-86
2021/05/13 09:12:51;;;;;;;8.38;6.80;;;;;;;18.04;85.90;100731.22;1681147;85;21008;-83
2021/05/13 09:15:22;;;;;;;6.85;6.25;;;;;;;18.01;91.88;100734.19;1689010;85;20968;-81
2021/05/13 09:17:53;;;;;;;9.50;7.25;;;;;;;18.09;97.78;100736.00;1689064;84;20973;-87
2021/05/13 09:20:31;;;;;;;7.80;7.00;;;;;;;18.20;98.02;100737.02;1683024;85;20941;-84
2021/05/13 09:23:26;;;;;;;10.60;9.50;;;;;;;18.34;97.11;100731.61;1662546;84;21004;-82
2021/05/13 09:26:08;;;;;;;8.10;6.80;;;;;;;18.47;100.00;100740.83;1673796;83;20940;-84
2021/05/13 09:28:37;;;;;;;10.18;8.48;;;;;;;18.60;83.89;100734.56;1639317;85;20937;-87
2021/05/13 09:31:05;;;;;;;14.40;9.20;;;;;;;18.70;85.65;100735.73;1661479;85;21012;-83
2021/05/13 09:33:37;;;;;;;16.10;11.08;;;;;;;18.84;91.75;100732.89;1688488;82;21044;-81
2021/05/13 09:36:21;;;;;;;12.43;9.88;;;;;;;18.85;82.85;100732.75;1700875;82;20923;-85
2021/05/13 09:38:49;;;;;;;8.48;7.47;;;;;;;18.79;79.47;100749.22;1688421;82;21567;-87
2021/05/13 09:41:31;;;;;;;10.43;9.33;;;;;;;18.86;87.15;100752.02;1688465;83;21026;-90
2021/05/13 09:43:58;;;;;;;9.98;7.60;;;;;;;18.99;85.65;100748.91;1702840;82;21004;-87
2021/05/13 09:46:36;;;;;;;11.88;9.08;;;;;;;19.12;78.18;100743.92;1688519;83;20942;-87
2021/05/13 09:49:05;;;;;;;32.55;16.80;;;;;;;19.10;77.96;100747.25;1702786;83;21540;-81
2021/05/13 09:51:38;;;;;;;263.73;90.85;;;;;;;19.01;79.41;100749.57;1702637;82;20950;-83
2021/05/13 09:54:17;;;;;;;20.25;13.25;;;;;;;18.99;75.74;100747.59;1702572;82;21026;-82
2021/05/13 09:56:54;;;;;;;11.25;8.93;;;;;;;19.08;76.92;100742.12;1702646;83;21058;-82
2021/05/13 09:59:35;;;;;;;10.35;7.83;;;;;;;19.21;68.24;100735.00;1702612;82;20911;-83
2021/05/13 10:02:07;;;;;;;8.43;7.03;;;;;;;19.34;76.48;100734.47;1702781;82;21663;-81
2021/05/13 10:04:34;;;;;;;8.25;7.40;;;;;;;19.43;76.15;100729.16;1702578;82;20970;-82
2021/05/13 10:07:03;;;;;;;7.08;6.35;;;;;;;19.52;74.65;100730.27;1702592;82;20981;-84
2021/05/13 10:09:31;;;;;;;7.25;6.55;;;;;;;19.60;67.71;100724.14;1684245;82;21671;-82
2021/05/13 10:12:00;;;;;;;7.65;6.95;;;;;;;19.68;78.58;100730.70;1688124;83;20950;-84
2021/05/13 10:14:28;;;;;;;7.20;6.50;;;;;;;19.76;71.71;100729.83;1705434;84;20944;-82
2021/05/13 10:17:03;;;;;;;7.17;6.47;;;;;;;19.81;74.50;100727.98;1688739;85;20948;-83
2021/05/13 10:19:42;;;;;;;10.10;7.80;;;;;;;19.87;75.79;100731.28;1664399;85;20917;-82
2021/05/13 10:22:15;;;;;;;12.78;8.70;;;;;;;19.96;76.89;100730.24;1664176;85;21072;-83
2021/05/13 10:24:43;;;;;;;7.67;6.90;;;;;;;20.05;61.15;100732.35;1686524;85;21646;-82
2021/05/13 10:27:21;;;;;;;7.53;6.83;;;;;;;20.13;69.95;100729.66;1666757;85;21542;-82
2021/05/13 10:30:01;;;;;;;9.15;6.90;;;;;;;20.25;67.16;100730.07;1688675;84;20956;-81
2021/05/13 10:32:31;;;;;;;7.05;6.17;;;;;;;20.30;68.85;100731.67;1678002;85;20925;-81
2021/05/13 10:34:59;;;;;;;14.87;7.12;;;;;;;20.33;67.58;100730.49;1644241;85;21061;-84
2021/05/13 10:37:34;;;;;;;6.55;5.97;;;;;;;20.40;68.20;100722.68;1663638;85;21573;-85
2021/05/13 10:42:44;;;;;;;7.00;6.37;;;;;;;20.51;58.98;100714.31;1666795;85;20964;-82
2021/05/13 10:45:32;;;;;;;6.60;6.05;;;;;;;20.58;71.75;100713.10;1666651;85;21039;-84
2021/05/13 10:48:36;;;;;;;6.85;6.20;;;;;;;20.66;68.08;100715.67;1666623;84;20991;-84
2021/05/13 10:51:07;;;;;;;7.17;5.37;;;;;;;20.74;65.26;100716.95;1666229;84;20917;-83
2021/05/13 10:53:49;;;;;;;7.85;5.15;;;;;;;20.80;64.57;100722.03;1690644;84;20940;-84
2021/05/13 10:56:30;;;;;;;8.98;5.10;;;;;;;20.83;59.88;100717.69;1664262;84;20987;-83
2021/05/13 10:59:10;;;;;;;6.78;4.97;;;;;;;20.80;62.21;100715.42;1687276;83;21553;-85
2021/05/13 11:01:50;;;;;;;9.80;5.17;;;;;;;20.76;57.42;100709.67;1655542;84;21045;-82
2021/05/13 14:01:29;;;;;;;;;;;;;;;;;;;;;
2021/05/13 19:21:49;;;;;;;;;;;;;;;;;;;;;
